Fatal error: SQL-statement failed: UPDATE pw_metars SET metar = "EDDF 030750Z 19009KT 9999 FEW006 SCT026 BKN070 19/18 Q1014 NOSIG", time = "19700101000000", timestamp = "20191114155626" WHERE icao = "EDDF"
MySQL said Incorrect datetime value: '19700101000000' for column `bimbel_bimbelde`.`pw_metars`.`time` at row 1 (1292).